Time;durP1;ratioP1;P1;durP2;ratioP2;P2;SDS_P1;SDS_P2;PMS_P1;PMS_P2;Temp;Humidity;BMP_temperature;BMP_pressure;BME280_temperature;BME280_humidity;BME280_pressure;Samples;Min_cycle;Max_cycle;Signal;HPM_P1;HPM_P2
2022/09/28 00:01:19;;;;;;;6.47;1.67;;;16.90;60.00;;;;;;6161274;28;20054;-74
2022/09/28 00:04:20;;;;;;;4.40;1.48;;;16.80;60.10;;;;;;6154943;28;20067;-75
2022/09/28 00:07:22;;;;;;;4.45;1.55;;;16.80;60.20;;;;;;6158268;28;20113;-74
2022/09/28 00:10:23;;;;;;;4.07;1.42;;;16.70;60.20;;;;;;6154263;28;20071;-75
2022/09/28 00:13:24;;;;;;;4.57;1.73;;;16.70;60.30;;;;;;6159472;28;20054;-74
2022/09/28 00:16:31;;;;;;;4.45;1.83;;;16.70;60.30;;;;;;6156285;28;20038;-75
2022/09/28 00:19:33;;;;;;;5.68;1.80;;;16.70;60.50;;;;;;6158643;28;20042;-75
2022/09/28 00:22:34;;;;;;;3.90;1.60;;;16.70;60.60;;;;;;6161912;28;20030;-74
2022/09/28 00:25:35;;;;;;;4.05;1.67;;;16.70;60.60;;;;;;6145336;28;20027;-74
2022/09/28 00:28:36;;;;;;;3.15;1.55;;;16.70;60.70;;;;;;6158736;28;20102;-74
2022/09/28 00:31:37;;;;;;;4.70;1.95;;;16.70;60.90;;;;;;6155863;28;20073;-74
2022/09/28 00:34:42;;;;;;;3.58;1.52;;;16.70;61.00;;;;;;6159941;28;20486;-74
2022/09/28 00:37:43;;;;;;;4.72;1.83;;;16.70;61.10;;;;;;6159364;28;20452;-74
2022/09/28 00:40:43;;;;;;;3.92;1.98;;;16.70;61.30;;;;;;6157111;28;20053;-74
2022/09/28 00:43:45;;;;;;;4.80;1.40;;;16.70;61.40;;;;;;6172122;28;20044;-74
2022/09/28 00:46:46;;;;;;;5.65;1.42;;;16.70;61.20;;;;;;6156613;28;20042;-74
2022/09/28 00:50:00;;;;;;;4.03;1.20;;;16.70;60.70;;;;;;6141291;28;20035;-74
2022/09/28 00:53:16;;;;;;;2.63;1.10;;;16.70;60.40;;;;;;6157724;28;20070;-74
2022/09/28 00:56:22;;;;;;;1.67;1.05;;;16.60;60.20;;;;;;6138474;28;20039;-74
2022/09/28 00:59:23;;;;;;;6.90;1.73;;;16.60;60.30;;;;;;6163296;28;20042;-74
2022/09/28 01:02:25;;;;;;;1.98;1.10;;;16.60;60.50;;;;;;6138720;28;20419;-75
2022/09/28 01:05:26;;;;;;;6.80;1.40;;;16.50;60.50;;;;;;6153351;28;20039;-74
2022/09/28 01:08:30;;;;;;;1.58;1.00;;;16.50;60.70;;;;;;6160348;28;20046;-74
2022/09/28 01:11:34;;;;;;;5.47;1.30;;;16.50;60.70;;;;;;6155029;28;20081;-74
2022/09/28 01:14:39;;;;;;;2.33;0.90;;;16.60;60.80;;;;;;6136765;28;20739;-74
2022/09/28 01:17:52;;;;;;;5.50;0.98;;;16.60;60.60;;;;;;6155977;28;20353;-76
2022/09/28 01:21:15;;;;;;;2.97;1.00;;;16.60;60.50;;;;;;6143835;28;20113;-74
2022/09/28 01:24:19;;;;;;;9.00;1.30;;;16.60;60.40;;;;;;6155090;28;20039;-74
2022/09/28 01:27:57;;;;;;;7.13;1.00;;;16.60;60.50;;;;;;6152862;28;20035;-74
2022/09/28 01:31:05;;;;;;;1.52;0.98;;;16.60;60.50;;;;;;6093880;29;20883;-74
2022/09/28 01:34:17;;;;;;;7.03;0.90;;;16.60;60.10;;;;;;6106502;29;20046;-74
2022/09/28 01:37:21;;;;;;;4.07;0.63;;;16.60;60.30;;;;;;6105982;29;20126;-74
2022/09/28 01:40:26;;;;;;;3.10;0.90;;;16.60;60.10;;;;;;6107182;29;20040;-76
2022/09/28 01:43:28;;;;;;;7.20;2.00;;;16.50;60.00;;;;;;6081080;29;20035;-75
2022/09/28 01:46:40;;;;;;;3.95;0.77;;;16.50;60.10;;;;;;6095548;29;20035;-74
2022/09/28 01:49:47;;;;;;;1.67;0.70;;;16.50;60.00;;;;;;6089520;29;20696;-74
2022/09/28 01:52:53;;;;;;;3.92;0.60;;;16.50;60.10;;;;;;6111082;29;20492;-74
2022/09/28 01:55:59;;;;;;;0.93;0.43;;;16.50;60.00;;;;;;6092037;29;20203;-74
2022/09/28 01:59:10;;;;;;;2.28;0.60;;;16.50;60.00;;;;;;6087526;29;20051;-74
2022/09/28 02:02:17;;;;;;;1.85;0.77;;;16.50;60.10;;;;;;6080948;29;20808;-74
2022/09/28 02:05:30;;;;;;;1.63;0.70;;;16.40;60.00;;;;;;6108571;28;20043;-74
2022/09/28 02:08:39;;;;;;;4.88;0.68;;;16.40;60.30;;;;;;6159042;28;20052;-74
2022/09/28 02:11:46;;;;;;;4.30;0.93;;;16.40;60.50;;;;;;6174866;28;20061;-73
2022/09/28 02:14:53;;;;;;;3.60;0.80;;;16.40;60.70;;;;;;6163914;28;20034;-74
2022/09/28 02:17:54;;;;;;;6.10;0.82;;;16.40;60.80;;;;;;6157483;28;20035;-74
2022/09/28 02:21:00;;;;;;;2.10;0.75;;;16.40;60.90;;;;;;6147189;28;20042;-74
2022/09/28 02:24:09;;;;;;;3.28;0.68;;;16.30;60.90;;;;;;6163691;28;20043;-74
2022/09/28 02:27:12;;;;;;;;;;;16.30;61.20;;;;;;6162156;28;20053;-74
2022/09/28 02:30:16;;;;;;;4.05;1.17;;;16.20;61.30;;;;;;6150004;28;19929;-73
2022/09/28 02:33:23;;;;;;;4.05;1.23;;;16.20;61.40;;;;;;6161972;28;20046;-73
2022/09/28 02:36:26;;;;;;;5.25;0.80;;;16.10;61.70;;;;;;6167158;28;20102;-73
2022/09/28 02:39:27;;;;;;;1.85;0.50;;;16.10;61.90;;;;;;6164384;28;20061;-74
2022/09/28 02:42:48;;;;;;;1.75;0.70;;;16.00;62.10;;;;;;6146681;28;20043;-73
2022/09/28 02:45:49;;;;;;;2.30;0.73;;;16.00;62.50;;;;;;6159951;28;20039;-75
2022/09/28 02:49:14;;;;;;;1.33;0.47;;;15.90;62.60;;;;;;6158119;28;20058;-75
2022/09/28 02:52:27;;;;;;;4.72;0.80;;;15.90;62.80;;;;;;6165670;28;20090;-75
2022/09/28 02:55:37;;;;;;;0.98;0.45;;;15.90;62.90;;;;;;6157496;28;20027;-75
2022/09/28 02:59:06;;;;;;;1.30;0.75;;;15.90;62.90;;;;;;6162211;28;20178;-75
2022/09/28 03:02:28;;;;;;;8.18;1.00;;;15.90;63.10;;;;;;6161286;28;20039;-75
2022/09/28 03:05:51;;;;;;;2.58;0.80;;;15.90;63.30;;;;;;6157408;28;20052;-75
2022/09/28 03:09:25;;;;;;;3.22;0.75;;;16.00;63.40;;;;;;6159307;28;20368;-75
2022/09/28 03:12:28;;;;;;;3.13;0.63;;;16.10;63.40;;;;;;6086073;29;20063;-75
2022/09/28 03:15:33;;;;;;;3.63;0.63;;;16.10;63.10;;;;;;6082723;29;20487;-74
2022/09/28 03:18:34;;;;;;;3.90;0.90;;;16.10;63.10;;;;;;6096156;29;20037;-75
2022/09/28 03:21:35;;;;;;;0.60;0.50;;;16.10;62.90;;;;;;6096584;29;20044;-75
2022/09/28 03:24:36;;;;;;;2.53;1.05;;;16.20;63.00;;;;;;6081958;29;20040;-75
2022/09/28 03:27:38;;;;;;;3.97;0.80;;;16.20;62.90;;;;;;6083713;29;20040;-78
2022/09/28 03:30:41;;;;;;;2.28;0.50;;;16.20;62.90;;;;;;6083645;29;20032;-75
2022/09/28 03:33:42;;;;;;;0.95;0.40;;;16.30;62.90;;;;;;6097820;29;20040;-75
2022/09/28 03:36:43;;;;;;;2.65;0.90;;;16.30;62.70;;;;;;6062084;29;20071;-75
2022/09/28 03:39:44;;;;;;;1.30;0.50;;;16.30;62.50;;;;;;6096019;29;20044;-75
2022/09/28 03:42:45;;;;;;;1.50;0.60;;;16.30;62.40;;;;;;6094227;29;20111;-75
2022/09/28 03:45:58;;;;;;;1.63;0.63;;;16.30;62.30;;;;;;6060306;29;20040;-75
2022/09/28 03:48:59;;;;;;;1.23;0.60;;;16.40;62.20;;;;;;6141607;28;20161;-75
2022/09/28 03:52:00;;;;;;;2.63;0.90;;;16.40;62.10;;;;;;6155433;28;20047;-75
2022/09/28 03:55:01;;;;;;;5.22;0.65;;;16.30;61.90;;;;;;6155099;28;20026;-75
2022/09/28 03:58:02;;;;;;;4.10;0.57;;;16.30;61.90;;;;;;6149542;28;20456;-75
2022/09/28 04:01:06;;;;;;;4.68;1.08;;;16.30;62.00;;;;;;6139765;28;20051;-75
2022/09/28 04:04:11;;;;;;;2.97;0.70;;;16.40;62.00;;;;;;6132728;28;20074;-75
2022/09/28 04:07:12;;;;;;;1.67;0.82;;;16.40;61.90;;;;;;6173822;28;20031;-73
2022/09/28 04:10:13;;;;;;;4.88;0.73;;;16.40;61.70;;;;;;6150998;28;20039;-73
2022/09/28 04:13:14;;;;;;;4.30;1.05;;;16.40;61.80;;;;;;6159013;28;20098;-74
2022/09/28 04:16:17;;;;;;;2.20;0.70;;;16.30;61.90;;;;;;6156630;28;20035;-74
2022/09/28 04:19:25;;;;;;;;;;;16.20;62.20;;;;;;6156896;28;20380;-74
2022/09/28 04:22:52;;;;;;;2.08;0.65;;;16.20;62.50;;;;;;6152849;28;19920;-74
2022/09/28 04:25:53;;;;;;;4.53;0.68;;;16.10;62.70;;;;;;6157772;28;20372;-73
2022/09/28 04:32:16;;;;;;;1.67;0.70;;;16.10;63.20;;;;;;6151063;28;20031;-74
2022/09/28 04:35:17;;;;;;;1.95;1.15;;;16.10;63.40;;;;;;6157677;28;20086;-74
2022/09/28 04:38:18;;;;;;;5.55;0.80;;;16.00;63.50;;;;;;6141288;28;20739;-74
2022/09/28 04:41:21;;;;;;;0.65;0.50;;;16.00;63.60;;;;;;6155238;28;20102;-74
2022/09/28 04:44:23;;;;;;;1.55;0.73;;;16.10;63.70;;;;;;6153000;28;20460;-74
2022/09/28 04:47:30;;;;;;;1.58;0.88;;;16.00;63.50;;;;;;6155208;28;20050;-74
2022/09/28 04:50:59;;;;;;;0.80;0.40;;;16.00;63.70;;;;;;6139837;28;20062;-74
2022/09/28 04:54:00;;;;;;;5.80;1.00;;;16.10;63.90;;;;;;6150894;28;20039;-73
2022/09/28 04:57:02;;;;;;;4.22;1.00;;;16.10;63.90;;;;;;6157475;28;20043;-75
2022/09/28 05:00:04;;;;;;;2.72;0.77;;;16.10;63.90;;;;;;6150662;28;20047;-75
2022/09/28 05:03:08;;;;;;;4.55;1.10;;;16.10;63.90;;;;;;6146077;28;20048;-75
2022/09/28 05:06:29;;;;;;;2.80;0.80;;;16.10;64.00;;;;;;6156164;28;20114;-75
2022/09/28 05:09:38;;;;;;;3.47;1.00;;;16.10;64.00;;;;;;6150652;28;20090;-74
2022/09/28 05:12:39;;;;;;;3.05;1.00;;;16.10;64.10;;;;;;6148449;28;20058;-74
2022/09/28 05:15:41;;;;;;;2.17;1.08;;;16.10;64.10;;;;;;6154278;28;20039;-75
2022/09/28 05:18:42;;;;;;;3.47;1.40;;;16.10;64.10;;;;;;6137028;28;20380;-75
2022/09/28 05:21:44;;;;;;;0.95;0.80;;;16.10;64.10;;;;;;6150190;28;20110;-74
2022/09/28 05:24:46;;;;;;;4.15;1.08;;;16.10;64.10;;;;;;6150621;28;20102;-75
2022/09/28 05:27:47;;;;;;;15.05;1.48;;;16.10;64.10;;;;;;6151239;28;20519;-75
2022/09/28 05:31:07;;;;;;;1.35;1.00;;;16.10;64.20;;;;;;6148902;28;20034;-75
2022/09/28 05:34:31;;;;;;;4.30;1.17;;;16.10;64.30;;;;;;6135048;28;20039;-75
2022/09/28 05:37:33;;;;;;;4.72;0.98;;;16.10;64.40;;;;;;6150676;28;20381;-75
2022/09/28 05:40:34;;;;;;;1.70;1.20;;;16.10;64.60;;;;;;6150177;28;20067;-75
2022/09/28 05:43:35;;;;;;;1.52;1.00;;;16.10;64.60;;;;;;6153427;28;20057;-76
2022/09/28 05:46:38;;;;;;;3.47;1.23;;;16.00;64.60;;;;;;6134373;28;20668;-75
2022/09/28 05:49:41;;;;;;;4.57;1.27;;;16.10;64.60;;;;;;6155427;28;20365;-75
2022/09/28 05:52:43;;;;;;;3.72;1.38;;;16.10;64.70;;;;;;6154285;28;20473;-75
2022/09/28 05:55:44;;;;;;;8.13;1.23;;;16.10;64.90;;;;;;6151583;28;20031;-74
2022/09/28 05:58:45;;;;;;;2.92;1.08;;;16.10;65.00;;;;;;6150372;28;20461;-74
2022/09/28 06:01:47;;;;;;;3.25;1.30;;;16.10;65.10;;;;;;6154058;28;20042;-73
2022/09/28 06:04:50;;;;;;;1.48;1.00;;;16.10;65.10;;;;;;6133832;28;20030;-74
2022/09/28 06:07:51;;;;;;;1.98;0.70;;;16.10;65.10;;;;;;6136079;28;20241;-74
2022/09/28 06:10:52;;;;;;;4.65;0.95;;;16.20;65.10;;;;;;6136131;28;20039;-74
2022/09/28 06:13:56;;;;;;;6.45;1.15;;;16.20;64.90;;;;;;6155972;28;20357;-74
2022/09/28 06:17:00;;;;;;;3.08;1.13;;;16.10;64.90;;;;;;6153940;28;20389;-75
2022/09/28 06:20:01;;;;;;;3.30;1.20;;;16.20;64.90;;;;;;6156565;28;20054;-74
2022/09/28 06:23:21;;;;;;;1.80;1.05;;;16.20;64.80;;;;;;6154709;28;20696;-74
2022/09/28 06:26:22;;;;;;;2.85;1.15;;;16.20;65.00;;;;;;6138121;28;20390;-74
2022/09/28 06:29:23;;;;;;;2.40;1.13;;;16.20;65.10;;;;;;6151774;28;21470;-73
2022/09/28 06:32:24;;;;;;;4.05;1.30;;;16.20;65.20;;;;;;6148155;28;20035;-74
2022/09/28 06:35:29;;;;;;;3.55;0.95;;;16.20;65.20;;;;;;6155794;28;20126;-73
2022/09/28 06:38:30;;;;;;;3.13;1.10;;;16.30;65.30;;;;;;6151228;28;20035;-73
2022/09/28 06:41:31;;;;;;;5.35;0.65;;;16.30;65.30;;;;;;6147423;28;20053;-73
2022/09/28 06:44:34;;;;;;;4.10;1.10;;;16.30;65.10;;;;;;6140599;28;20642;-73
2022/09/28 06:47:41;;;;;;;12.85;1.30;;;16.30;65.00;;;;;;6153811;28;20031;-73
2022/09/28 06:50:50;;;;;;;4.70;1.27;;;16.30;65.00;;;;;;6154439;28;20031;-73
2022/09/28 06:54:24;;;;;;;1.77;1.13;;;16.40;65.10;;;;;;6093537;29;20068;-73
2022/09/28 06:57:37;;;;;;;4.32;1.48;;;16.50;65.00;;;;;;6107956;29;20411;-73
2022/09/28 07:00:39;;;;;;;4.75;1.33;;;16.50;65.00;;;;;;6106903;29;20471;-73
2022/09/28 07:03:41;;;;;;;5.55;2.10;;;16.60;64.90;;;;;;6107705;29;20032;-74
2022/09/28 07:06:58;;;;;;;5.43;2.10;;;16.60;64.90;;;;;;6107376;29;20170;-74
2022/09/28 07:10:18;;;;;;;7.07;1.40;;;16.70;64.80;;;;;;6100460;29;20036;-74
2022/09/28 07:13:39;;;;;;;3.33;1.48;;;16.70;64.80;;;;;;6104913;29;20043;-73
2022/09/28 07:16:41;;;;;;;3.88;2.05;;;16.70;64.80;;;;;;6079901;29;20470;-73
2022/09/28 07:19:43;;;;;;;3.13;1.20;;;16.80;64.80;;;;;;6089106;29;20142;-73
2022/09/28 07:22:46;;;;;;;2.28;1.10;;;16.80;64.60;;;;;;6091295;29;20048;-74
2022/09/28 07:25:53;;;;;;;4.30;1.15;;;16.90;64.60;;;;;;6094532;29;20114;-73
2022/09/28 07:29:04;;;;;;;2.90;1.10;;;16.90;64.50;;;;;;6096603;28;20040;-74
2022/09/28 07:32:06;;;;;;;2.35;1.02;;;17.00;64.40;;;;;;6157947;28;20042;-74
2022/09/28 07:35:34;;;;;;;3.80;1.38;;;17.10;64.30;;;;;;6139742;28;20364;-74
2022/09/28 07:38:37;;;;;;;1.88;1.20;;;17.20;64.00;;;;;;6142568;28;20046;-74
2022/09/28 07:41:38;;;;;;;8.02;1.33;;;17.20;63.60;;;;;;6157967;28;20432;-74
2022/09/28 07:44:42;;;;;;;10.77;1.17;;;17.30;63.40;;;;;;6161474;28;20043;-75
2022/09/28 07:47:43;;;;;;;4.15;1.30;;;17.30;63.30;;;;;;6140091;28;20035;-73
2022/09/28 07:50:55;;;;;;;5.05;1.10;;;17.40;63.10;;;;;;6140651;28;20173;-73
2022/09/28 07:54:26;;;;;;;1.58;1.10;;;17.40;62.80;;;;;;6139286;28;20387;-73
2022/09/28 07:57:47;;;;;;;5.88;1.10;;;17.50;62.80;;;;;;6153017;28;20055;-74
2022/09/28 08:01:14;;;;;;;4.20;1.00;;;17.50;62.60;;;;;;6045560;29;20471;-74
2022/09/28 08:04:17;;;;;;;3.42;0.70;;;17.60;62.40;;;;;;6030593;29;20075;-73
2022/09/28 08:07:21;;;;;;;0.82;0.73;;;17.70;62.10;;;;;;6048175;29;20124;-73
2022/09/28 08:10:27;;;;;;;4.45;1.00;;;17.70;61.80;;;;;;6049880;29;20102;-74
2022/09/28 08:13:38;;;;;;;4.07;1.02;;;17.80;61.80;;;;;;6050486;29;20426;-74
2022/09/28 08:16:55;;;;;;;4.35;1.33;;;17.80;61.60;;;;;;6046857;29;20547;-74
2022/09/28 08:23:29;;;;;;;2.88;1.30;;;18.00;61.10;;;;;;6055315;29;20051;-75
2022/09/28 08:26:30;;;;;;;3.33;1.00;;;18.20;61.10;;;;;;6039281;29;20124;-74
2022/09/28 08:29:32;;;;;;;4.28;0.93;;;18.40;60.70;;;;;;6033344;29;20788;-74
2022/09/28 08:32:53;;;;;;;3.42;1.38;;;18.50;60.30;;;;;;6046710;29;20041;-74
2022/09/28 08:36:12;;;;;;;4.22;1.02;;;18.50;59.90;;;;;;6049698;29;20037;-74
2022/09/28 08:39:52;;;;;;;3.80;1.35;;;18.40;59.90;;;;;;6096420;29;20068;-73
2022/09/28 08:43:47;;;;;;;6.10;1.10;;;18.40;60.00;;;;;;6011863;29;20049;-74
2022/09/28 08:48:42;;;;;;;4.25;1.10;;;18.30;60.40;;;;;;6004309;29;20049;-75
2022/09/28 08:50:53;;;;;;;5.78;1.33;;;18.30;60.30;;;;;;5989784;29;20042;-74
2022/09/28 08:54:30;;;;;;;3.65;1.23;;;18.30;60.10;;;;;;6005007;29;20147;-74
2022/09/28 08:57:49;;;;;;;4.32;1.48;;;18.20;60.40;;;;;;6021083;29;20037;-73
2022/09/28 09:00:53;;;;;;;3.70;1.60;;;18.30;60.40;;;;;;5995288;29;20048;-73
2022/09/28 09:03:54;;;;;;;3.15;1.40;;;18.30;60.40;;;;;;6024337;29;20562;-73
2022/09/28 09:07:41;;;;;;;6.20;1.42;;;18.30;60.40;;;;;;6006999;29;20451;-73
2022/09/28 09:11:06;;;;;;;2.78;1.10;;;18.40;60.30;;;;;;5988124;29;20061;-73
2022/09/28 09:14:53;;;;;;;8.30;1.48;;;18.50;60.30;;;;;;6011609;29;20042;-73
2022/09/28 09:18:07;;;;;;;10.30;2.50;;;18.50;60.30;;;;;;6021942;29;20146;-73
2022/09/28 09:21:40;;;;;;;2.67;1.33;;;18.70;60.40;;;;;;6080237;29;20052;-74
2022/09/28 09:24:48;;;;;;;4.13;1.65;;;18.90;60.10;;;;;;6066418;29;20138;-73
2022/09/28 09:28:10;;;;;;;3.83;1.45;;;19.10;59.70;;;;;;6079029;29;20036;-73
2022/09/28 09:31:44;;;;;;;1.45;0.93;;;19.20;59.30;;;;;;6077327;29;20128;-75
2022/09/28 09:35:19;;;;;;;2.08;1.17;;;19.40;58.90;;;;;;6065486;29;20044;-75
2022/09/28 09:39:07;;;;;;;4.40;1.10;;;19.50;58.80;;;;;;5899126;30;20036;-74
2022/09/28 09:43:16;;;;;;;4.57;1.55;;;19.70;58.50;;;;;;5903942;30;20036;-74
2022/09/28 09:46:55;;;;;;;1.58;1.02;;;19.70;58.30;;;;;;5913475;30;20040;-74
2022/09/28 09:50:09;;;;;;;1.42;1.02;;;19.80;58.10;;;;;;5882844;30;20035;-74
2022/09/28 09:53:23;;;;;;;5.50;1.48;;;19.80;58.20;;;;;;5915333;30;20423;-74
2022/09/28 09:56:53;;;;;;;2.97;1.30;;;19.70;58.00;;;;;;5911535;30;20497;-74
2022/09/28 10:00:15;;;;;;;5.45;1.17;;;19.70;58.20;;;;;;5913786;30;20482;-75
2022/09/28 10:03:28;;;;;;;5.15;1.30;;;19.60;58.20;;;;;;5906878;30;20055;-73
2022/09/28 10:06:42;;;;;;;2.67;1.10;;;19.50;58.30;;;;;;5892493;30;20467;-74
2022/09/28 10:09:46;;;;;;;4.60;1.25;;;19.50;58.40;;;;;;5885230;30;20592;-73
2022/09/28 10:13:09;;;;;;;2.63;1.30;;;19.50;58.40;;;;;;5905799;30;20056;-74
2022/09/28 10:16:10;;;;;;;3.17;1.40;;;19.60;58.40;;;;;;6037494;29;20044;-74
2022/09/28 10:19:31;;;;;;;4.15;1.40;;;19.60;58.40;;;;;;6104524;28;20470;-73
2022/09/28 10:22:55;;;;;;;7.03;1.88;;;19.60;58.40;;;;;;6160936;28;20090;-74
2022/09/28 10:26:09;;;;;;;4.30;1.40;;;19.50;58.50;;;;;;6137143;28;20448;-74
2022/09/28 10:29:19;;;;;;;3.17;1.40;;;19.50;58.80;;;;;;6157341;28;20085;-74
2022/09/28 10:32:36;;;;;;;2.90;1.15;;;19.30;59.00;;;;;;6155628;28;20441;-74
2022/09/28 10:35:42;;;;;;;6.18;1.52;;;19.30;59.50;;;;;;6163654;28;20089;-74
2022/09/28 10:38:47;;;;;;;4.35;1.23;;;19.20;59.60;;;;;;6162627;28;20031;-73
2022/09/28 10:42:07;;;;;;;4.28;1.35;;;19.10;59.70;;;;;;6145468;28;20501;-75
2022/09/28 10:45:21;;;;;;;4.03;1.50;;;19.10;59.90;;;;;;6123643;28;20031;-74
2022/09/28 10:48:22;;;;;;;5.65;1.42;;;19.10;60.30;;;;;;6171226;28;20110;-74
2022/09/28 10:51:43;;;;;;;2.30;1.35;;;19.10;60.50;;;;;;6160785;28;20078;-76
2022/09/28 10:54:52;;;;;;;3.25;1.25;;;19.10;60.80;;;;;;6154491;28;20023;-74
2022/09/28 10:57:55;;;;;;;3.95;1.38;;;19.20;60.80;;;;;;6151658;28;20047;-74
2022/09/28 11:01:02;;;;;;;4.50;1.17;;;19.20;60.90;;;;;;6155512;28;20067;-74
2022/09/28 11:04:09;;;;;;;4.95;1.88;;;19.20;61.00;;;;;;6151678;28;20039;-75
2022/09/28 11:07:19;;;;;;;6.47;2.10;;;19.30;60.90;;;;;;6151644;28;20051;-74
2022/09/28 11:10:25;;;;;;;6.30;2.20;;;19.40;60.90;;;;;;6149159;28;20373;-74
2022/09/28 11:13:29;;;;;;;5.57;2.20;;;19.40;61.10;;;;;;6141797;28;20043;-74
2022/09/28 11:16:37;;;;;;;;;;;19.40;61.30;;;;;;6148990;28;20037;-74
2022/09/28 11:19:39;;;;;;;8.07;2.97;;;19.50;61.40;;;;;;6151954;28;20013;-74
2022/09/28 11:22:41;;;;;;;8.25;3.75;;;19.60;61.10;;;;;;6155517;28;20036;-75
2022/09/28 11:26:01;;;;;;;5.97;2.80;;;19.60;61.10;;;;;;6154352;28;20131;-74
2022/09/28 11:29:03;;;;;;;7.95;2.25;;;19.70;61.50;;;;;;6151471;28;20488;-73
2022/09/28 11:32:28;;;;;;;6.00;2.53;;;19.80;61.60;;;;;;6152136;28;20069;-75
2022/09/28 11:36:12;;;;;;;5.35;2.40;;;19.80;61.70;;;;;;6146566;28;20034;-74
2022/09/28 11:39:23;;;;;;;3.50;1.70;;;19.80;61.70;;;;;;6152208;28;20451;-74
2022/09/28 11:42:48;;;;;;;6.95;2.40;;;19.90;62.10;;;;;;6150000;28;20070;-74
2022/09/28 11:45:55;;;;;;;35.17;15.80;;;19.90;61.90;;;;;;6152245;28;20063;-74
2022/09/28 11:49:04;;;;;;;8.82;3.95;;;19.90;61.90;;;;;;6153696;28;20061;-74
2022/09/28 11:52:16;;;;;;;6.53;2.55;;;19.90;61.80;;;;;;6138174;28;20531;-73
2022/09/28 11:55:20;;;;;;;10.25;2.45;;;19.90;61.90;;;;;;6153053;28;20114;-74
2022/09/28 11:58:36;;;;;;;7.03;2.22;;;19.90;62.30;;;;;;6140260;28;20035;-74
2022/09/28 12:01:44;;;;;;;7.10;2.30;;;19.80;62.20;;;;;;6134697;28;20046;-74
2022/09/28 12:05:30;;;;;;;8.13;2.20;;;19.80;62.60;;;;;;6152503;28;20066;-74
2022/09/28 12:08:39;;;;;;;4.32;2.38;;;19.80;62.80;;;;;;6135061;28;20049;-73
2022/09/28 12:11:45;;;;;;;5.40;2.15;;;19.70;63.00;;;;;;6157704;28;20039;-74
2022/09/28 12:14:57;;;;;;;7.13;1.90;;;19.80;63.10;;;;;;6152877;28;20464;-74
2022/09/28 12:18:18;;;;;;;6.05;1.70;;;19.90;62.90;;;;;;6155250;28;20118;-74
2022/09/28 12:21:50;;;;;;;4.47;2.00;;;19.90;62.60;;;;;;6156491;28;20046;-75
2022/09/28 12:24:55;;;;;;;4.53;1.70;;;20.00;62.40;;;;;;6154007;28;20097;-73
2022/09/28 12:28:02;;;;;;;5.72;1.90;;;20.20;62.30;;;;;;6154124;28;20039;-75
2022/09/28 12:31:27;;;;;;;5.97;1.95;;;20.30;62.10;;;;;;6149239;28;20039;-73
2022/09/28 12:34:29;;;;;;;1.98;1.15;;;20.40;62.10;;;;;;6154052;28;20031;-74
2022/09/28 12:37:39;;;;;;;7.25;1.77;;;20.60;61.70;;;;;;6156062;28;20072;-74
2022/09/28 12:41:08;;;;;;;3.78;1.40;;;20.60;61.40;;;;;;6156822;28;20134;-74
2022/09/28 12:44:40;;;;;;;3.50;1.80;;;20.80;61.50;;;;;;6150764;28;20090;-74
2022/09/28 12:48:03;;;;;;;4.43;1.70;;;21.10;61.30;;;;;;6150359;28;20061;-75
2022/09/28 12:51:33;;;;;;;2.45;1.25;;;21.60;60.90;;;;;;6157007;28;20035;-76
2022/09/28 12:54:56;;;;;;;3.90;1.15;;;22.20;59.60;;;;;;6139764;28;20053;-74
2022/09/28 12:58:19;;;;;;;3.03;1.20;;;22.60;58.70;;;;;;6158414;28;20046;-75
2022/09/28 13:01:44;;;;;;;6.13;0.98;;;22.90;57.80;;;;;;6155849;28;20154;-74
2022/09/28 13:05:01;;;;;;;4.93;1.70;;;23.20;57.30;;;;;;6150795;28;20065;-74
2022/09/28 13:08:07;;;;;;;1.50;1.13;;;23.40;56.90;;;;;;6153398;28;20376;-74
2022/09/28 13:11:26;;;;;;;3.92;1.73;;;23.40;56.70;;;;;;6151101;28;20039;-75
2022/09/28 13:15:02;;;;;;;5.35;3.55;;;23.30;56.50;;;;;;6151243;28;20605;-75
2022/09/28 13:18:32;;;;;;;2.90;1.70;;;23.20;56.50;;;;;;6057589;29;20041;-74
2022/09/28 13:21:58;;;;;;;2.63;1.30;;;23.00;56.20;;;;;;6049135;29;20545;-75
2022/09/28 13:25:06;;;;;;;6.15;1.55;;;22.80;56.70;;;;;;6076572;29;20127;-75
2022/09/28 13:28:11;;;;;;;3.63;0.90;;;22.70;57.00;;;;;;6080065;29;20475;-75
2022/09/28 13:31:19;;;;;;;7.45;1.45;;;22.60;57.10;;;;;;6080947;29;20120;-75
2022/09/28 13:34:32;;;;;;;1.90;1.30;;;22.50;57.20;;;;;;6079618;29;20096;-74
2022/09/28 13:37:33;;;;;;;2.35;1.50;;;22.50;57.20;;;;;;6080075;29;20072;-74
2022/09/28 13:41:04;;;;;;;3.00;1.13;;;22.40;57.10;;;;;;6067881;29;20041;-75
2022/09/28 13:44:12;;;;;;;1.05;0.77;;;22.50;57.20;;;;;;6077382;29;20037;-74
2022/09/28 13:47:40;;;;;;;0.82;0.52;;;22.70;56.70;;;;;;6063082;29;20040;-74
2022/09/28 13:50:59;;;;;;;1.23;0.75;;;22.80;56.30;;;;;;6066021;29;20048;-74
2022/09/28 13:54:28;;;;;;;3.17;1.08;;;22.80;56.20;;;;;;6111553;28;20035;-75
2022/09/28 13:57:46;;;;;;;1.23;1.08;;;22.70;56.20;;;;;;6145865;28;20373;-74
2022/09/28 14:00:57;;;;;;;1.63;0.70;;;22.60;56.30;;;;;;6151876;28;20058;-73
2022/09/28 14:04:20;;;;;;;5.50;0.85;;;22.50;56.30;;;;;;6158155;28;20066;-74
2022/09/28 14:08:10;;;;;;;1.40;0.85;;;22.50;56.70;;;;;;6146660;28;20031;-74
2022/09/28 14:11:41;;;;;;;3.28;1.40;;;22.40;56.80;;;;;;6091452;29;20471;-74
2022/09/28 14:14:52;;;;;;;4.57;1.08;;;22.60;56.70;;;;;;6095943;29;20470;-74
2022/09/28 14:18:08;;;;;;;0.55;0.55;;;22.70;56.50;;;;;;6083792;29;20187;-74
2022/09/28 14:21:12;;;;;;;8.25;1.00;;;22.90;56.20;;;;;;6082766;29;20153;-75
2022/09/28 14:24:36;;;;;;;9.10;1.00;;;22.90;55.90;;;;;;6080839;29;20084;-74
2022/09/28 14:28:00;;;;;;;1.73;0.60;;;22.80;56.00;;;;;;6093416;29;20040;-74
2022/09/28 14:31:09;;;;;;;3.35;0.73;;;22.80;56.10;;;;;;6093084;29;20084;-75
2022/09/28 14:34:32;;;;;;;0.98;0.70;;;22.80;56.20;;;;;;6093047;29;20044;-74
2022/09/28 14:41:09;;;;;;;1.73;1.15;;;22.70;56.20;;;;;;6094496;29;20056;-74
2022/09/28 14:44:17;;;;;;;1.08;0.82;;;22.60;56.20;;;;;;6081766;29;20455;-75
2022/09/28 14:47:55;;;;;;;6.38;1.00;;;22.50;56.50;;;;;;6112750;28;20072;-74
2022/09/28 14:51:36;;;;;;;1.80;0.80;;;22.30;56.70;;;;;;6058514;29;20099;-74
2022/09/28 14:54:53;;;;;;;1.05;0.80;;;22.10;57.00;;;;;;6073259;29;20480;-73
2022/09/28 14:57:58;;;;;;;1.52;0.90;;;21.90;57.10;;;;;;6068286;29;20550;-73
2022/09/28 15:01:11;;;;;;;3.83;0.90;;;21.70;57.50;;;;;;6094039;29;20199;-74
2022/09/28 15:04:13;;;;;;;1.63;1.00;;;21.50;57.80;;;;;;6086169;29;20493;-73
2022/09/28 15:07:18;;;;;;;1.58;0.90;;;21.40;58.00;;;;;;6055989;29;20481;-75
2022/09/28 15:10:37;;;;;;;6.38;1.35;;;21.30;58.50;;;;;;6067836;29;20211;-74
2022/09/28 15:13:39;;;;;;;2.72;1.05;;;21.10;59.00;;;;;;6085182;29;20040;-74
2022/09/28 15:16:42;;;;;;;2.03;0.90;;;20.90;59.60;;;;;;6075632;29;20083;-74
2022/09/28 15:20:08;;;;;;;5.20;1.25;;;20.60;60.60;;;;;;6086371;29;20052;-74
2022/09/28 15:23:33;;;;;;;2.38;0.88;;;20.40;61.80;;;;;;6085514;29;20062;-76
2022/09/28 15:26:34;;;;;;;0.47;0.47;;;20.00;63.40;;;;;;6086173;28;20131;-75
2022/09/28 15:29:36;;;;;;;1.20;0.28;;;19.60;63.80;;;;;;6146590;28;20031;-75
2022/09/28 15:32:37;;;;;;;0.10;0.10;;;19.30;63.30;;;;;;6152686;28;20130;-76
2022/09/28 15:35:39;;;;;;;0.30;0.20;;;19.00;62.70;;;;;;6141869;28;20045;-76
2022/09/28 15:38:41;;;;;;;0.32;0.20;;;18.70;63.40;;;;;;6140745;28;20058;-76
2022/09/28 15:41:44;;;;;;;0.47;0.30;;;18.50;63.60;;;;;;6156536;28;20615;-76
2022/09/28 15:45:02;;;;;;;0.43;0.28;;;18.30;64.00;;;;;;6152634;28;20042;-76
2022/09/28 15:48:29;;;;;;;0.35;0.35;;;18.20;64.50;;;;;;6152314;28;20460;-76
2022/09/28 15:51:44;;;;;;;0.68;0.22;;;18.10;64.80;;;;;;6158539;28;20414;-74
2022/09/28 15:54:46;;;;;;;0.70;0.25;;;18.10;65.00;;;;;;6152196;28;20350;-75
2022/09/28 15:57:47;;;;;;;0.45;0.10;;;18.10;65.10;;;;;;6145909;28;20031;-74
2022/09/28 16:01:10;;;;;;;0.10;0.10;;;18.10;65.10;;;;;;6156131;28;20047;-74
2022/09/28 16:04:36;;;;;;;0.93;0.30;;;18.10;65.00;;;;;;6155174;28;20469;-76
2022/09/28 16:07:52;;;;;;;1.17;0.30;;;18.20;64.90;;;;;;6152328;28;20480;-75
2022/09/28 16:11:01;;;;;;;0.17;0.10;;;18.30;64.60;;;;;;6157224;28;20055;-75
2022/09/28 16:14:17;;;;;;;0.50;0.20;;;18.40;64.40;;;;;;6156554;28;20039;-76
2022/09/28 16:17:31;;;;;;;2.03;0.38;;;18.50;64.20;;;;;;6157544;28;20034;-76
2022/09/28 16:20:36;;;;;;;0.65;0.45;;;18.60;64.00;;;;;;6154032;28;20097;-75
2022/09/28 16:23:38;;;;;;;1.00;0.50;;;18.70;64.10;;;;;;6157310;28;20164;-76
2022/09/28 16:26:39;;;;;;;1.50;0.90;;;18.80;63.70;;;;;;6161234;28;20043;-76
2022/09/28 16:29:43;;;;;;;2.92;0.80;;;18.80;63.70;;;;;;6157209;28;20058;-74
2022/09/28 16:32:51;;;;;;;2.92;0.80;;;18.80;63.80;;;;;;6156606;28;20043;-75
2022/09/28 16:35:52;;;;;;;2.45;0.93;;;18.80;63.70;;;;;;6153388;28;20043;-75
2022/09/28 16:38:54;;;;;;;0.88;0.45;;;18.80;63.50;;;;;;6152189;28;20532;-75
2022/09/28 16:42:01;;;;;;;2.15;0.90;;;18.90;63.50;;;;;;6171175;28;20058;-75
2022/09/28 16:45:04;;;;;;;1.08;0.77;;;18.90;63.50;;;;;;6154986;28;20038;-75
2022/09/28 16:48:05;;;;;;;3.40;1.17;;;18.90;63.50;;;;;;6156393;28;20100;-75